map of BLL home
BLL - Airport
Location
City:  Billund, Denmark
ICAO:EKBI
IATA:BLL

Details
Type:Airport (Aerodrome, Airfield)
Latitude:5544'25"N (55.740322)
Longitude:909'06"E (9.151778)
Elevation:247 ft (75 m)
Variation:2.67E (WMM2015 magnetic declination)
0.15 annual change
Runways:1
Longest:10171 × 148 ft (3100 × 45 m), paved

Time
Time Zone:UTC+1 (DST+2)
Local Time:

Weather
METAR:EKBI 120520Z AUTO 04005KT 020V080 9999 OVC018/// 03/M00 Q1027
TAF:EKBI 111109Z 1112/1212 36008KT 9999 SCT020= TAF LOWG 111115Z 1112/1212 VRB02KT 9999 FEW050 SCT180 TX06/1113Z TNM03/1205Z
TEMPO 1112/1117 34010KT BKN060 PROB30
TEMPO 1122/1205 2000 FZBCFG FEW080
TEMPO 1208/1212 34008KT

Related Locations
Nearby:
Farthest:CHT: 11569 mi / 18619 km
Waitangi [Tuuta], CIT, NZ

Find:

   beyond  
but within

Other Information
Maps:
NOTAMs:
Links:
Sources:

  
  • flag of Denmark
  

Sectional Chart

Flight Planning
at skyvector.com

Satellite Image

Google Maps Satellite view

 

Copyright © 2004-2018 Karl L. Swartz. All rights reserved.
The Great Circle Mapper name and logo are trademarks of the Great Circle Mapper.
All other trademarks mentioned herein belong to their respective owners.
Please see credits for attibutions and further copyright information.

  Follow gcmap on Facebook Follow gcmap on Twitter Follow gcmap on Google+ GCmap on LinkedIn

hCard Microformat

Geo Microformat